首页
METAR-TAF:

METAR-TAF

机场 :

敖德薩國際機場

敖德薩, 乌克兰

纬度: 46-26N, 经度: 030-46E, 海拔: 42米

当前天气观测

该预报发布于29分钟前的01:30 UTC
风速8节,风向南转西南
温度 12°C
湿度 94%
气压 1008 hPa
能见度10公里或以上
1500米以下无云,无积雨云

METAR: UKOO 310130Z 20004MPS CAVOK 12/11 Q1008 R34/290054 NOSIG

时间: 04:59 (01:59 UTC)

预报

该预报发布于2小时和56分钟前的23:03 UTC
预报有效从31日的 00点(UTC)到 31日的 24点(UTC)
风速10节,风向,有时为21节阵风
能見度: 2100
散云层高于300英尺
多云层高于700英尺
散云层高于1500英尺, 积雨云.
轻雾
几率 40% :
短暂存在
从 31日的 00点(UTC)到 31日的 05点(UTC)
能見度: 0400
层高于200英尺
成为
从 31日的 05点(UTC)到 31日的 06点(UTC)
风速14节,风向西南,有时为27节阵风
能見度: 6000
小阵雨
几率 40% :
短暂存在
从 31日的 06点(UTC)到 31日的 16点(UTC)
风速17节,风向多变,有时为35节阵风
能見度: 1000
多云层高于300英尺
多云层高于1300英尺, 积雨云.
雷暴, 雨, 冰雹, 飑

TAF: UKOO 302303Z 3100/3124 19005G11MPS 2100 BR SCT003 BKN007 SCT015CB PROB40 TEMPO 3100/3105 0400 FG VV002 BECMG 3105/3106 22007G14MPS 6000 -SHRA PROB40 TEMPO 3106/3116 VRB09G18MPS 1000 TSRAGR SQ BKN003 BKN013CB

超过4000个机场的气象观测和天气预报(METAR&TAF报告)。

可查询的气象台以黄色和红色小点在地图上表示。

将鼠标移到小点上方,可查看气象台名称。

然后点击查看天气观测和预报。

如需切换地图:点击带黑十字的绿色按钮放大地图;点击带横线的绿色按钮缩小地图;或者点击绿色箭头查看邻近地区的地图。


METAR-TAF: